sensor_id;sensor_type;location;lat;lon;timestamp;pressure;altitude;pressure_sealevel;temperature;humidity
32873;BME280;19224;52.462;16.898;2023-03-03T00:00:28;100847.37;;;0.22;100.00
32873;BME280;19224;52.462;16.898;2023-03-03T00:03:03;100846.05;;;0.17;100.00
32873;BME280;19224;52.462;16.898;2023-03-03T00:05:35;100855.72;;;0.12;100.00
32873;BME280;19224;52.462;16.898;2023-03-03T00:08:06;100849.91;;;-0.01;100.00
32873;BME280;19224;52.462;16.898;2023-03-03T00:10:37;100847.29;;;0.04;100.00
32873;BME280;19224;52.462;16.898;2023-03-03T00:13:24;100842.50;;;0.14;100.00
32873;BME280;19224;52.462;16.898;2023-03-03T00:16:16;100838.15;;;0.28;100.00
32873;BME280;19224;52.462;16.898;2023-03-03T00:18:45;100844.33;;;0.27;100.00
32873;BME280;19224;52.462;16.898;2023-03-03T00:21:32;100843.82;;;0.14;100.00
32873;BME280;19224;52.462;16.898;2023-03-03T00:24:24;100835.94;;;0.23;100.00
32873;BME280;19224;52.462;16.898;2023-03-03T00:26:59;100835.76;;;-0.04;100.00
32873;BME280;19224;52.462;16.898;2023-03-03T00:29:38;100842.45;;;0.11;100.00
32873;BME280;19224;52.462;16.898;2023-03-03T00:32:27;100836.65;;;-0.02;100.00
32873;BME280;19224;52.462;16.898;2023-03-03T00:35:37;100840.98;;;-0.16;100.00
32873;BME280;19224;52.462;16.898;2023-03-03T00:37:41;100832.56;;;-0.21;100.00
32873;BME280;19224;52.462;16.898;2023-03-03T00:40:26;100836.51;;;-0.23;100.00
32873;BME280;19224;52.462;16.898;2023-03-03T00:42:59;100841.86;;;-0.17;100.00
32873;BME280;19224;52.462;16.898;2023-03-03T00:45:46;100827.72;;;-0.22;100.00
32873;BME280;19224;52.462;16.898;2023-03-03T00:48:29;100832.95;;;-0.31;100.00
32873;BME280;19224;52.462;16.898;2023-03-03T00:51:04;100850.55;;;-0.37;100.00
32873;BME280;19224;52.462;16.898;2023-03-03T00:53:33;100843.09;;;-0.32;100.00
32873;BME280;19224;52.462;16.898;2023-03-03T00:56:03;100830.13;;;-0.50;100.00
32873;BME280;19224;52.462;16.898;2023-03-03T00:58:33;100822.86;;;-0.22;100.00
32873;BME280;19224;52.462;16.898;2023-03-03T01:01:04;100822.44;;;-0.22;100.00
32873;BME280;19224;52.462;16.898;2023-03-03T01:03:34;100815.84;;;-0.13;100.00
32873;BME280;19224;52.462;16.898;2023-03-03T01:06:05;100819.36;;;-0.17;100.00
32873;BME280;19224;52.462;16.898;2023-03-03T01:08:36;100819.02;;;-0.04;100.00
32873;BME280;19224;52.462;16.898;2023-03-03T01:11:12;100820.73;;;-0.07;100.00
32873;BME280;19224;52.462;16.898;2023-03-03T01:13:47;100817.28;;;0.02;100.00
32873;BME280;19224;52.462;16.898;2023-03-03T01:16:19;100813.75;;;0.03;100.00
32873;BME280;19224;52.462;16.898;2023-03-03T01:18:52;100810.19;;;-0.03;100.00
32873;BME280;19224;52.462;16.898;2023-03-03T01:21:23;100808.44;;;0.01;100.00
32873;BME280;19224;52.462;16.898;2023-03-03T01:23:53;100815.50;;;0.02;100.00
32873;BME280;19224;52.462;16.898;2023-03-03T01:26:23;100803.98;;;-0.07;100.00
32873;BME280;19224;52.462;16.898;2023-03-03T01:28:54;100805.30;;;-0.10;100.00
32873;BME280;19224;52.462;16.898;2023-03-03T01:31:25;100800.47;;;-0.06;100.00
32873;BME280;19224;52.462;16.898;2023-03-03T01:33:56;100801.29;;;-0.13;100.00
32873;BME280;19224;52.462;16.898;2023-03-03T01:36:27;100799.14;;;-0.06;100.00
32873;BME280;19224;52.462;16.898;2023-03-03T01:38:58;100797.70;;;-0.24;100.00
32873;BME280;19224;52.462;16.898;2023-03-03T01:41:30;100788.51;;;-0.16;100.00
32873;BME280;19224;52.462;16.898;2023-03-03T01:44:04;100798.61;;;-0.20;100.00
32873;BME280;19224;52.462;16.898;2023-03-03T01:47:10;100784.33;;;-0.45;100.00
32873;BME280;19224;52.462;16.898;2023-03-03T01:49:54;100775.56;;;-0.41;100.00
32873;BME280;19224;52.462;16.898;2023-03-03T01:52:36;100773.31;;;-0.47;100.00
32873;BME280;19224;52.462;16.898;2023-03-03T01:55:14;100770.72;;;-0.37;100.00
32873;BME280;19224;52.462;16.898;2023-03-03T01:57:56;100776.01;;;-0.37;100.00
32873;BME280;19224;52.462;16.898;2023-03-03T02:00:22;100777.41;;;-0.25;100.00
32873;BME280;19224;52.462;16.898;2023-03-03T02:02:53;100778.34;;;-0.17;100.00
32873;BME280;19224;52.462;16.898;2023-03-03T02:05:24;100778.39;;;-0.11;100.00
32873;BME280;19224;52.462;16.898;2023-03-03T02:07:55;100773.03;;;-0.18;100.00
32873;BME280;19224;52.462;16.898;2023-03-03T02:10:26;100770.02;;;-0.06;100.00
32873;BME280;19224;52.462;16.898;2023-03-03T02:12:58;100775.33;;;-0.03;100.00
32873;BME280;19224;52.462;16.898;2023-03-03T02:15:32;100792.55;;;-0.02;100.00
32873;BME280;19224;52.462;16.898;2023-03-03T02:18:10;100804.29;;;-0.30;100.00
32873;BME280;19224;52.462;16.898;2023-03-03T02:23:48;100801.52;;;-0.45;100.00
32873;BME280;19224;52.462;16.898;2023-03-03T02:26:29;100800.18;;;-0.48;100.00
32873;BME280;19224;52.462;16.898;2023-03-03T02:29:00;100798.86;;;-0.48;100.00
32873;BME280;19224;52.462;16.898;2023-03-03T02:31:32;100786.21;;;-0.29;100.00
32873;BME280;19224;52.462;16.898;2023-03-03T02:34:03;100792.48;;;-0.13;100.00
32873;BME280;19224;52.462;16.898;2023-03-03T02:36:37;100791.62;;;-0.11;100.00
32873;BME280;19224;52.462;16.898;2023-03-03T02:39:18;100790.28;;;-0.12;100.00
32873;BME280;19224;52.462;16.898;2023-03-03T02:44:47;100817.59;;;-0.18;100.00
32873;BME280;19224;52.462;16.898;2023-03-03T02:47:17;100813.66;;;-0.13;100.00
32873;BME280;19224;52.462;16.898;2023-03-03T02:49:48;100811.84;;;-0.20;100.00
32873;BME280;19224;52.462;16.898;2023-03-03T02:52:18;100807.83;;;-0.28;100.00
32873;BME280;19224;52.462;16.898;2023-03-03T02:54:48;100804.81;;;-0.17;100.00
32873;BME280;19224;52.462;16.898;2023-03-03T02:57:19;100808.34;;;-0.15;100.00
32873;BME280;19224;52.462;16.898;2023-03-03T02:59:49;100795.02;;;-0.33;100.00
32873;BME280;19224;52.462;16.898;2023-03-03T03:02:19;100794.15;;;-0.29;100.00
32873;BME280;19224;52.462;16.898;2023-03-03T03:04:50;100798.78;;;-0.57;100.00
32873;BME280;19224;52.462;16.898;2023-03-03T03:07:20;100809.87;;;-0.50;100.00
32873;BME280;19224;52.462;16.898;2023-03-03T03:09:50;100806.42;;;-0.40;100.00
32873;BME280;19224;52.462;16.898;2023-03-03T03:12:21;100804.58;;;-0.50;100.00
32873;BME280;19224;52.462;16.898;2023-03-03T03:14:52;100812.47;;;-0.57;100.00
32873;BME280;19224;52.462;16.898;2023-03-03T03:17:22;100795.86;;;-0.38;100.00
32873;BME280;19224;52.462;16.898;2023-03-03T03:19:52;100792.78;;;-0.36;100.00
32873;BME280;19224;52.462;16.898;2023-03-03T03:22:23;100792.30;;;-0.40;100.00
32873;BME280;19224;52.462;16.898;2023-03-03T03:24:53;100783.02;;;-0.46;100.00
32873;BME280;19224;52.462;16.898;2023-03-03T03:27:23;100784.76;;;-0.47;100.00
32873;BME280;19224;52.462;16.898;2023-03-03T03:29:54;100788.36;;;-0.36;100.00
32873;BME280;19224;52.462;16.898;2023-03-03T03:32:24;100782.63;;;-0.34;100.00
32873;BME280;19224;52.462;16.898;2023-03-03T03:34:54;100787.53;;;-0.29;100.00
32873;BME280;19224;52.462;16.898;2023-03-03T03:37:25;100786.14;;;-0.41;100.00
32873;BME280;19224;52.462;16.898;2023-03-03T03:39:55;100785.17;;;-0.50;100.00
32873;BME280;19224;52.462;16.898;2023-03-03T03:42:25;100783.36;;;-0.60;100.00
32873;BME280;19224;52.462;16.898;2023-03-03T03:44:56;100781.03;;;-0.76;100.00
32873;BME280;19224;52.462;16.898;2023-03-03T03:47:26;100781.08;;;-0.67;100.00
32873;BME280;19224;52.462;16.898;2023-03-03T03:49:56;100764.45;;;-0.54;100.00
32873;BME280;19224;52.462;16.898;2023-03-03T03:52:27;100767.61;;;-0.44;100.00
32873;BME280;19224;52.462;16.898;2023-03-03T03:54:57;100767.63;;;-0.38;100.00
32873;BME280;19224;52.462;16.898;2023-03-03T03:57:27;100769.36;;;-0.41;100.00
32873;BME280;19224;52.462;16.898;2023-03-03T03:59:58;100770.27;;;-0.41;100.00
32873;BME280;19224;52.462;16.898;2023-03-03T04:02:28;100775.50;;;-0.47;100.00
32873;BME280;19224;52.462;16.898;2023-03-03T04:04:58;100764.89;;;-0.51;100.00
32873;BME280;19224;52.462;16.898;2023-03-03T04:07:29;100765.78;;;-0.51;100.00
32873;BME280;19224;52.462;16.898;2023-03-03T04:09:59;100762.70;;;-0.52;100.00
32873;BME280;19224;52.462;16.898;2023-03-03T04:12:30;100765.42;;;-0.40;100.00
32873;BME280;19224;52.462;16.898;2023-03-03T04:15:01;100765.00;;;-0.35;100.00
32873;BME280;19224;52.462;16.898;2023-03-03T04:17:32;100757.11;;;-0.29;100.00
32873;BME280;19224;52.462;16.898;2023-03-03T04:20:03;100752.75;;;-0.21;100.00
32873;BME280;19224;52.462;16.898;2023-03-03T04:22:34;100758.92;;;-0.22;100.00
32873;BME280;19224;52.462;16.898;2023-03-03T04:25:05;100752.33;;;-0.16;100.00
32873;BME280;19224;52.462;16.898;2023-03-03T04:27:37;100745.71;;;-0.13;100.00
32873;BME280;19224;52.462;16.898;2023-03-03T04:30:09;100747.03;;;-0.19;100.00
32873;BME280;19224;52.462;16.898;2023-03-03T04:32:40;100743.89;;;-0.23;100.00
32873;BME280;19224;52.462;16.898;2023-03-03T04:35:11;100743.94;;;-0.20;100.00
32873;BME280;19224;52.462;16.898;2023-03-03T04:37:42;100733.82;;;-0.14;100.00
32873;BME280;19224;52.462;16.898;2023-03-03T04:40:12;100740.39;;;-0.20;100.00
32873;BME280;19224;52.462;16.898;2023-03-03T04:42:44;100733.35;;;-0.20;100.00
32873;BME280;19224;52.462;16.898;2023-03-03T04:45:15;100741.73;;;-0.19;100.00
32873;BME280;19224;52.462;16.898;2023-03-03T04:47:45;100737.30;;;-0.21;100.00
32873;BME280;19224;52.462;16.898;2023-03-03T04:50:16;100728.03;;;-0.24;100.00
32873;BME280;19224;52.462;16.898;2023-03-03T04:52:46;100743.00;;;-0.28;100.00
32873;BME280;19224;52.462;16.898;2023-03-03T04:55:16;100739.41;;;-0.39;100.00
32873;BME280;19224;52.462;16.898;2023-03-03T04:57:47;100755.11;;;-0.61;100.00
32873;BME280;19224;52.462;16.898;2023-03-03T05:00:18;100749.39;;;-0.64;100.00
32873;BME280;19224;52.462;16.898;2023-03-03T05:02:49;100756.00;;;-0.64;100.00
32873;BME280;19224;52.462;16.898;2023-03-03T05:05:19;100746.83;;;-0.52;100.00
32873;BME280;19224;52.462;16.898;2023-03-03T05:07:49;100752.50;;;-0.57;100.00
32873;BME280;19224;52.462;16.898;2023-03-03T05:10:20;100746.77;;;-0.61;100.00
32873;BME280;19224;52.462;16.898;2023-03-03T05:12:50;100742.86;;;-0.52;100.00
32873;BME280;19224;52.462;16.898;2023-03-03T05:15:21;100743.72;;;-0.54;100.00
32873;BME280;19224;52.462;16.898;2023-03-03T05:17:51;100739.33;;;-0.54;100.00
32873;BME280;19224;52.462;16.898;2023-03-03T05:20:24;100727.42;;;-0.54;100.00
32873;BME280;19224;52.462;16.898;2023-03-03T05:22:55;100723.09;;;-0.40;100.00
32873;BME280;19224;52.462;16.898;2023-03-03T05:25:27;100724.82;;;-0.46;100.00
32873;BME280;19224;52.462;16.898;2023-03-03T05:27:57;100738.95;;;-0.43;100.00
32873;BME280;19224;52.462;16.898;2023-03-03T05:30:27;100734.09;;;-0.43;100.00
32873;BME280;19224;52.462;16.898;2023-03-03T05:32:58;100746.47;;;-0.38;100.00
32873;BME280;19224;52.462;16.898;2023-03-03T05:35:28;100753.11;;;-0.33;100.00
32873;BME280;19224;52.462;16.898;2023-03-03T05:37:59;100746.03;;;-0.36;100.00
32873;BME280;19224;52.462;16.898;2023-03-03T05:40:30;100746.99;;;-0.26;100.00
32873;BME280;19224;52.462;16.898;2023-03-03T05:43:00;100755.41;;;-0.18;100.00
32873;BME280;19224;52.462;16.898;2023-03-03T05:45:31;100758.05;;;-0.18;100.00
32873;BME280;19224;52.462;16.898;2023-03-03T05:48:01;100772.16;;;-0.19;100.00
32873;BME280;19224;52.462;16.898;2023-03-03T05:50:33;100780.55;;;-0.18;100.00
32873;BME280;19224;52.462;16.898;2023-03-03T05:53:05;100788.48;;;-0.18;100.00
32873;BME280;19224;52.462;16.898;2023-03-03T05:55:35;100789.30;;;-0.28;100.00
32873;BME280;19224;52.462;16.898;2023-03-03T05:58:05;100797.73;;;-0.21;100.00
32873;BME280;19224;52.462;16.898;2023-03-03T06:00:36;100806.48;;;-0.29;100.00
32873;BME280;19224;52.462;16.898;2023-03-03T06:03:06;100802.53;;;-0.28;100.00
32873;BME280;19224;52.462;16.898;2023-03-03T06:05:37;100786.23;;;-0.27;100.00
32873;BME280;19224;52.462;16.898;2023-03-03T06:08:07;100768.14;;;-0.28;100.00
32873;BME280;19224;52.462;16.898;2023-03-03T06:10:37;100777.84;;;-0.27;100.00
32873;BME280;19224;52.462;16.898;2023-03-03T06:13:08;100764.61;;;-0.27;100.00
32873;BME280;19224;52.462;16.898;2023-03-03T06:15:38;100760.63;;;-0.30;100.00
32873;BME280;19224;52.462;16.898;2023-03-03T06:18:08;100776.34;;;-0.52;100.00
32873;BME280;19224;52.462;16.898;2023-03-03T06:20:39;100779.55;;;-0.36;100.00
32873;BME280;19224;52.462;16.898;2023-03-03T06:23:09;100784.21;;;-0.63;100.00
32873;BME280;19224;52.462;16.898;2023-03-03T06:25:39;100776.31;;;-0.57;100.00
32873;BME280;19224;52.462;16.898;2023-03-03T06:31:07;100783.16;;;-0.83;100.00
32873;BME280;19224;52.462;16.898;2023-03-03T06:33:38;100784.95;;;-0.79;100.00
32873;BME280;19224;52.462;16.898;2023-03-03T06:36:14;100792.63;;;-0.57;100.00
32873;BME280;19224;52.462;16.898;2023-03-03T06:38:44;100786.94;;;-0.54;100.00
32873;BME280;19224;52.462;16.898;2023-03-03T06:41:20;100793.51;;;-0.58;100.00
32873;BME280;19224;52.462;16.898;2023-03-03T06:43:50;100798.44;;;-0.47;100.00
32873;BME280;19224;52.462;16.898;2023-03-03T06:46:21;100788.83;;;-0.33;100.00
32873;BME280;19224;52.462;16.898;2023-03-03T06:48:52;100792.91;;;-0.17;100.00
32873;BME280;19224;52.462;16.898;2023-03-03T06:51:35;100796.35;;;-0.30;100.00
32873;BME280;19224;52.462;16.898;2023-03-03T06:54:18;100789.77;;;-0.25;100.00
32873;BME280;19224;52.462;16.898;2023-03-03T06:56:56;100787.98;;;-0.25;100.00
32873;BME280;19224;52.462;16.898;2023-03-03T06:59:26;100793.27;;;-0.28;100.00
32873;BME280;19224;52.462;16.898;2023-03-03T07:01:58;100792.45;;;-0.21;100.00
32873;BME280;19224;52.462;16.898;2023-03-03T07:04:33;100796.89;;;-0.15;100.00
32873;BME280;19224;52.462;16.898;2023-03-03T07:07:26;100790.19;;;-0.26;100.00
32873;BME280;19224;52.462;16.898;2023-03-03T07:10:05;100783.87;;;-0.49;100.00
32873;BME280;19224;52.462;16.898;2023-03-03T07:12:31;100791.38;;;-0.48;100.00
32873;BME280;19224;52.462;16.898;2023-03-03T07:15:20;100786.94;;;-0.54;100.00
32873;BME280;19224;52.462;16.898;2023-03-03T07:17:51;100787.42;;;-0.45;100.00
32873;BME280;19224;52.462;16.898;2023-03-03T07:20:42;100799.27;;;-0.51;100.00
32873;BME280;19224;52.462;16.898;2023-03-03T07:23:24;100808.97;;;-0.50;100.00
32873;BME280;19224;52.462;16.898;2023-03-03T07:25:54;100802.41;;;-0.47;100.00
32873;BME280;19224;52.462;16.898;2023-03-03T07:28:30;100812.50;;;-0.53;100.00
32873;BME280;19224;52.462;16.898;2023-03-03T07:31:38;100814.72;;;-0.51;100.00
32873;BME280;19224;52.462;16.898;2023-03-03T07:34:39;100808.69;;;-0.32;100.00
32873;BME280;19224;52.462;16.898;2023-03-03T07:37:36;100812.25;;;-0.24;100.00
32873;BME280;19224;52.462;16.898;2023-03-03T07:40:04;100819.80;;;-0.19;100.00
32873;BME280;19224;52.462;16.898;2023-03-03T07:42:41;100822.84;;;-0.25;100.00
32873;BME280;19224;52.462;16.898;2023-03-03T07:45:31;100826.83;;;-0.22;100.00
32873;BME280;19224;52.462;16.898;2023-03-03T07:48:30;100834.00;;;-0.02;100.00
32873;BME280;19224;52.462;16.898;2023-03-03T07:53:53;100830.12;;;0.11;100.00
32873;BME280;19224;52.462;16.898;2023-03-03T07:56:35;100821.69;;;0.00;100.00
32873;BME280;19224;52.462;16.898;2023-03-03T07:59:24;100829.13;;;-0.10;100.00
32873;BME280;19224;52.462;16.898;2023-03-03T08:01:58;100829.64;;;0.03;100.00
32873;BME280;19224;52.462;16.898;2023-03-03T08:04:47;100830.08;;;0.04;100.00
32873;BME280;19224;52.462;16.898;2023-03-03T08:07:22;100836.62;;;-0.07;100.00
32873;BME280;19224;52.462;16.898;2023-03-03T08:10:06;100837.01;;;-0.16;100.00
32873;BME280;19224;52.462;16.898;2023-03-03T08:12:43;100833.00;;;-0.23;100.00
32873;BME280;19224;52.462;16.898;2023-03-03T08:15:27;100844.02;;;-0.22;100.00
32873;BME280;19224;52.462;16.898;2023-03-03T08:17:57;100836.47;;;-0.32;100.00
32873;BME280;19224;52.462;16.898;2023-03-03T08:20:44;100830.75;;;-0.30;100.00
32873;BME280;19224;52.462;16.898;2023-03-03T08:23:17;100823.84;;;-0.07;100.00
32873;BME280;19224;52.462;16.898;2023-03-03T08:25:51;100835.73;;;-0.08;100.00
32873;BME280;19224;52.462;16.898;2023-03-03T08:28:23;100838.89;;;0.04;100.00
32873;BME280;19224;52.462;16.898;2023-03-03T08:30:56;100838.46;;;0.02;100.00
32873;BME280;19224;52.462;16.898;2023-03-03T08:33:28;100848.56;;;-0.02;100.00
32873;BME280;19224;52.462;16.898;2023-03-03T08:36:06;100845.91;;;-0.02;100.00
32873;BME280;19224;52.462;16.898;2023-03-03T08:38:42;100846.42;;;0.08;100.00
32873;BME280;19224;52.462;16.898;2023-03-03T08:41:09;100843.83;;;0.17;100.00
32873;BME280;19224;52.462;16.898;2023-03-03T08:43:40;100839.42;;;0.22;100.00
32873;BME280;19224;52.462;16.898;2023-03-03T08:46:13;100838.56;;;0.24;100.00
32873;BME280;19224;52.462;16.898;2023-03-03T08:48:44;100848.73;;;0.25;100.00
32873;BME280;19224;52.462;16.898;2023-03-03T08:51:16;100843.75;;;0.02;100.00
32873;BME280;19224;52.462;16.898;2023-03-03T08:53:54;100831.39;;;0.05;100.00
32873;BME280;19224;52.462;16.898;2023-03-03T08:56:31;100832.67;;;-0.05;100.00
32873;BME280;19224;52.462;16.898;2023-03-03T08:59:03;100827.94;;;0.14;100.00
32873;BME280;19224;52.462;16.898;2023-03-03T09:01:31;100819.14;;;0.19;100.00
32873;BME280;19224;52.462;16.898;2023-03-03T09:04:01;100826.67;;;0.29;100.00
32873;BME280;19224;52.462;16.898;2023-03-03T09:06:32;100817.41;;;0.32;100.00
32873;BME280;19224;52.462;16.898;2023-03-03T09:09:03;100823.53;;;0.22;100.00
32873;BME280;19224;52.462;16.898;2023-03-03T09:11:34;100824.42;;;0.21;100.00
32873;BME280;19224;52.462;16.898;2023-03-03T09:14:21;100830.69;;;0.35;100.00
32873;BME280;19224;52.462;16.898;2023-03-03T09:16:55;100830.69;;;0.35;100.00
32873;BME280;19224;52.462;16.898;2023-03-03T09:19:31;100836.85;;;0.35;100.00
32873;BME280;19224;52.462;16.898;2023-03-03T09:22:22;100837.27;;;0.26;100.00
32873;BME280;19224;52.462;16.898;2023-03-03T09:24:57;100848.70;;;0.22;100.00
32873;BME280;19224;52.462;16.898;2023-03-03T09:27:35;100836.84;;;0.29;100.00
32873;BME280;19224;52.462;16.898;2023-03-03T09:39:03;100843.46;;;0.29;100.00
32873;BME280;19224;52.462;16.898;2023-03-03T09:44:52;100839.55;;;0.44;100.00
32873;BME280;19224;52.462;16.898;2023-03-03T09:50:41;100837.41;;;0.59;100.00
32873;BME280;19224;52.462;16.898;2023-03-03T09:56:21;100833.83;;;0.51;100.00
32873;BME280;19224;52.462;16.898;2023-03-03T10:05:32;100826.38;;;0.62;100.00
32873;BME280;19224;52.462;16.898;2023-03-03T10:31:45;100817.66;;;1.16;100.00
32873;BME280;19224;52.462;16.898;2023-03-03T10:44:13;100820.76;;;1.50;100.00
32873;BME280;19224;52.462;16.898;2023-03-03T10:46:51;100823.87;;;1.40;100.00
32873;BME280;19224;52.462;16.898;2023-03-03T10:55:31;100825.17;;;1.58;100.00
32873;BME280;19224;52.462;16.898;2023-03-03T11:07:37;100812.34;;;1.61;100.00
32873;BME280;19224;52.462;16.898;2023-03-03T11:13:35;100808.83;;;1.35;100.00
32873;BME280;19224;52.462;16.898;2023-03-03T11:19:29;100794.67;;;1.57;100.00
32873;BME280;19224;52.462;16.898;2023-03-03T11:25:26;100791.12;;;1.56;100.00
32873;BME280;19224;52.462;16.898;2023-03-03T11:34:25;100780.95;;;1.59;100.00
32873;BME280;19224;52.462;16.898;2023-03-03T11:37:08;100786.70;;;1.60;100.00
32873;BME280;19224;52.462;16.898;2023-03-03T11:39:52;100790.22;;;1.65;100.00
32873;BME280;19224;52.462;16.898;2023-03-03T11:42:50;100782.73;;;1.61;100.00
32873;BME280;19224;52.462;16.898;2023-03-03T11:45:27;100781.38;;;1.63;100.00
32873;BME280;19224;52.462;16.898;2023-03-03T11:48:07;100776.95;;;1.66;100.00
32873;BME280;19224;52.462;16.898;2023-03-03T11:51:04;100774.28;;;1.74;100.00
32873;BME280;19224;52.462;16.898;2023-03-03T11:53:53;100769.86;;;1.73;100.00
32873;BME280;19224;52.462;16.898;2023-03-03T11:56:29;100772.49;;;1.80;100.00
32873;BME280;19224;52.462;16.898;2023-03-03T11:59:20;100764.97;;;1.77;100.00
32873;BME280;19224;52.462;16.898;2023-03-03T12:04:44;100774.69;;;1.87;100.00
32873;BME280;19224;52.462;16.898;2023-03-03T12:07:41;100764.06;;;1.87;100.00
32873;BME280;19224;52.462;16.898;2023-03-03T12:10:31;100766.74;;;1.90;100.00
32873;BME280;19224;52.462;16.898;2023-03-03T12:13:19;100763.21;;;1.76;100.00
32873;BME280;19224;52.462;16.898;2023-03-03T12:15:57;100769.86;;;1.73;100.00
32873;BME280;19224;52.462;16.898;2023-03-03T12:27:10;100751.67;;;1.90;100.00
32873;BME280;19224;52.462;16.898;2023-03-03T12:30:08;100754.77;;;1.93;100.00
32873;BME280;19224;52.462;16.898;2023-03-03T12:33:17;100750.77;;;1.96;100.00
32873;BME280;19224;52.462;16.898;2023-03-03T12:42:05;100753.00;;;1.92;100.00
32873;BME280;19224;52.462;16.898;2023-03-03T12:47:48;100741.51;;;1.82;100.00
32873;BME280;19224;52.462;16.898;2023-03-03T12:50:41;100749.90;;;1.94;100.00
32873;BME280;19224;52.462;16.898;2023-03-03T12:56:14;100749.42;;;1.99;100.00
32873;BME280;19224;52.462;16.898;2023-03-03T12:59:10;100746.35;;;1.95;100.00
32873;BME280;19224;52.462;16.898;2023-03-03T13:04:47;100752.08;;;1.99;100.00
32873;BME280;19224;52.462;16.898;2023-03-03T13:07:33;100745.02;;;1.95;100.00
32873;BME280;19224;52.462;16.898;2023-03-03T13:10:10;100755.17;;;2.00;100.00
32873;BME280;19224;52.462;16.898;2023-03-03T13:12:47;100757.84;;;2.01;100.00
32873;BME280;19224;52.462;16.898;2023-03-03T13:15:24;100757.02;;;1.84;100.00
32873;BME280;19224;52.462;16.898;2023-03-03T13:18:13;100745.09;;;1.71;100.00
32873;BME280;19224;52.462;16.898;2023-03-03T13:26:49;100739.28;;;1.95;100.00
32873;BME280;19224;52.462;16.898;2023-03-03T13:29:42;100742.80;;;2.02;100.00
32873;BME280;19224;52.462;16.898;2023-03-03T13:32:23;100737.05;;;1.93;100.00
32873;BME280;19224;52.462;16.898;2023-03-03T13:35:16;100741.03;;;2.01;100.00
32873;BME280;19224;52.462;16.898;2023-03-03T13:37:56;100744.06;;;2.11;100.00
32873;BME280;19224;52.462;16.898;2023-03-03T13:40:38;100737.48;;;1.94;100.00
32873;BME280;19224;52.462;16.898;2023-03-03T13:43:17;100740.62;;;1.91;100.00
32873;BME280;19224;52.462;16.898;2023-03-03T13:54:51;100738.76;;;2.12;100.00
32873;BME280;19224;52.462;16.898;2023-03-03T14:01:00;100738.36;;;2.04;100.00
32873;BME280;19224;52.462;16.898;2023-03-03T14:06:26;100720.20;;;2.03;100.00
32873;BME280;19224;52.462;16.898;2023-03-03T14:10:02;100702.48;;;2.08;100.00
32873;BME280;19224;52.462;16.898;2023-03-03T14:12:33;100706.90;;;2.08;100.00
32873;BME280;19224;52.462;16.898;2023-03-03T14:15:20;100709.55;;;2.14;100.00
32873;BME280;19224;52.462;16.898;2023-03-03T14:18:44;100707.32;;;2.15;100.00
32873;BME280;19224;52.462;16.898;2023-03-03T14:21:26;100711.68;;;2.28;100.00
32873;BME280;19224;52.462;16.898;2023-03-03T14:24:20;100701.08;;;2.25;100.00
32873;BME280;19224;52.462;16.898;2023-03-03T14:26:56;100693.52;;;2.28;100.00
32873;BME280;19224;52.462;16.898;2023-03-03T14:29:31;100697.05;;;2.30;100.00
32873;BME280;19224;52.462;16.898;2023-03-03T14:32:23;100698.37;;;2.32;100.00
32873;BME280;19224;52.462;16.898;2023-03-03T14:35:00;100694.41;;;2.29;100.00
32873;BME280;19224;52.462;16.898;2023-03-03T14:37:44;100689.14;;;2.20;100.00
32873;BME280;19224;52.462;16.898;2023-03-03T14:40:32;100686.94;;;2.15;100.00
32873;BME280;19224;52.462;16.898;2023-03-03T14:43:07;100679.88;;;2.10;100.00
32873;BME280;19224;52.462;16.898;2023-03-03T14:45:41;100695.45;;;1.98;100.00
32873;BME280;19224;52.462;16.898;2023-03-03T14:48:26;100679.48;;;2.01;100.00
32873;BME280;19224;52.462;16.898;2023-03-03T14:53:50;100680.33;;;2.14;100.00
32873;BME280;19224;52.462;16.898;2023-03-03T14:56:32;100675.06;;;1.99;100.00
32873;BME280;19224;52.462;16.898;2023-03-03T14:59:23;100671.56;;;1.95;100.00
32873;BME280;19224;52.462;16.898;2023-03-03T15:07:46;100666.72;;;1.86;100.00
32873;BME280;19224;52.462;16.898;2023-03-03T15:16:04;100665.81;;;1.93;100.00
32873;BME280;19224;52.462;16.898;2023-03-03T15:21:38;100662.66;;;2.04;100.00
32873;BME280;19224;52.462;16.898;2023-03-03T15:24:27;100665.75;;;2.03;100.00
32873;BME280;19224;52.462;16.898;2023-03-03T15:27:27;100667.17;;;1.84;100.00
32873;BME280;19224;52.462;16.898;2023-03-03T15:30:19;100659.21;;;1.84;100.00
32873;BME280;19224;52.462;16.898;2023-03-03T15:39:31;100654.80;;;1.77;100.00
32873;BME280;19224;52.462;16.898;2023-03-03T15:45:10;100663.19;;;1.84;100.00
32873;BME280;19224;52.462;16.898;2023-03-03T15:51:25;100660.95;;;1.89;100.00
32873;BME280;19224;52.462;16.898;2023-03-03T15:54:27;100650.73;;;1.98;100.00
32873;BME280;19224;52.462;16.898;2023-03-03T16:05:33;100642.79;;;1.96;100.00
32873;BME280;19224;52.462;16.898;2023-03-03T16:14:09;100638.45;;;1.79;100.00
32873;BME280;19224;52.462;16.898;2023-03-03T16:16:48;100636.23;;;1.74;100.00
32873;BME280;19224;52.462;16.898;2023-03-03T16:19:47;100638.50;;;1.67;100.00
32873;BME280;19224;52.462;16.898;2023-03-03T16:22:47;100638.50;;;1.59;100.00
32873;BME280;19224;52.462;16.898;2023-03-03T16:31:52;100632.70;;;1.76;100.00
32873;BME280;19224;52.462;16.898;2023-03-03T16:40:19;100625.66;;;1.65;100.00
32873;BME280;19224;52.462;16.898;2023-03-03T16:42:59;100629.61;;;1.75;100.00
32873;BME280;19224;52.462;16.898;2023-03-03T16:45:35;100633.13;;;1.76;100.00
32873;BME280;19224;52.462;16.898;2023-03-03T16:48:15;100634.88;;;1.83;100.00
32873;BME280;19224;52.462;16.898;2023-03-03T16:51:03;100632.27;;;1.69;100.00